sensor_id;sensor_type;location;lat;lon;timestamp;pressure;altitude;pressure_sealevel;temperature;humidity
77023;BME280;65952;51.440;-2.054;2023-07-13T00:00:11;100201.09;;;16.34;66.50
77023;BME280;65952;51.440;-2.054;2023-07-13T00:02:37;100202.34;;;16.32;66.79
77023;BME280;65952;51.440;-2.054;2023-07-13T00:05:02;100197.75;;;16.39;66.58
77023;BME280;65952;51.440;-2.054;2023-07-13T00:07:28;100200.88;;;16.36;66.37
77023;BME280;65952;51.440;-2.054;2023-07-13T00:09:54;100195.25;;;16.31;66.44
77023;BME280;65952;51.440;-2.054;2023-07-13T00:12:34;100203.19;;;16.25;66.64
77023;BME280;65952;51.440;-2.054;2023-07-13T00:15:06;100202.31;;;16.25;66.40
77023;BME280;65952;51.440;-2.054;2023-07-13T00:17:33;100210.25;;;16.27;66.67
77023;BME280;65952;51.440;-2.054;2023-07-13T00:19:58;100210.06;;;16.28;66.34
77023;BME280;65952;51.440;-2.054;2023-07-13T00:22:24;100207.75;;;16.38;66.22
77023;BME280;65952;51.440;-2.054;2023-07-13T00:24:54;100196.69;;;16.40;66.21
77023;BME280;65952;51.440;-2.054;2023-07-13T00:27:22;100212.31;;;16.31;66.17
77023;BME280;65952;51.440;-2.054;2023-07-13T00:29:48;100204.44;;;16.36;66.30
77023;BME280;65952;51.440;-2.054;2023-07-13T00:32:13;100202.75;;;16.35;66.01
77023;BME280;65952;51.440;-2.054;2023-07-13T00:34:39;100201.72;;;16.30;66.10
77023;BME280;65952;51.440;-2.054;2023-07-13T00:37:05;100202.75;;;16.15;66.47
77023;BME280;65952;51.440;-2.054;2023-07-13T00:39:33;100203.59;;;16.09;66.57
77023;BME280;65952;51.440;-2.054;2023-07-13T00:41:59;100199.59;;;16.05;66.84
77023;BME280;65952;51.440;-2.054;2023-07-13T00:44:25;100202.09;;;16.00;66.78
77023;BME280;65952;51.440;-2.054;2023-07-13T00:46:51;100201.06;;;15.94;66.83
77023;BME280;65952;51.440;-2.054;2023-07-13T00:49:20;100202.72;;;15.88;67.11
77023;BME280;65952;51.440;-2.054;2023-07-13T00:52:07;100200.00;;;15.82;67.47
77023;BME280;65952;51.440;-2.054;2023-07-13T00:54:43;100206.00;;;15.77;67.31
77023;BME280;65952;51.440;-2.054;2023-07-13T00:57:14;100203.09;;;15.79;67.21
77023;BME280;65952;51.440;-2.054;2023-07-13T00:59:43;100201.22;;;15.72;67.58
77023;BME280;65952;51.440;-2.054;2023-07-13T01:02:10;100202.47;;;15.70;67.46
77023;BME280;65952;51.440;-2.054;2023-07-13T01:04:36;100200.56;;;15.70;67.88
77023;BME280;65952;51.440;-2.054;2023-07-13T01:07:01;100198.88;;;15.63;67.92
77023;BME280;65952;51.440;-2.054;2023-07-13T01:09:27;100205.75;;;15.65;68.19
77023;BME280;65952;51.440;-2.054;2023-07-13T01:11:53;100208.25;;;15.67;67.94
77023;BME280;65952;51.440;-2.054;2023-07-13T01:14:18;100196.41;;;15.74;67.70
77023;BME280;65952;51.440;-2.054;2023-07-13T01:16:46;100196.00;;;15.77;67.75
77023;BME280;65952;51.440;-2.054;2023-07-13T01:19:47;100197.88;;;15.70;67.97
77023;BME280;65952;51.440;-2.054;2023-07-13T01:22:14;100193.28;;;15.71;68.04
77023;BME280;65952;51.440;-2.054;2023-07-13T01:24:42;100193.09;;;15.72;68.13
77023;BME280;65952;51.440;-2.054;2023-07-13T01:27:10;100182.44;;;15.71;68.33
77023;BME280;65952;51.440;-2.054;2023-07-13T01:29:37;100183.91;;;15.73;68.46
77023;BME280;65952;51.440;-2.054;2023-07-13T01:32:12;100190.16;;;15.67;68.36
77023;BME280;65952;51.440;-2.054;2023-07-13T01:34:38;100191.41;;;15.65;68.69
77023;BME280;65952;51.440;-2.054;2023-07-13T01:37:08;100197.84;;;15.64;69.32
77023;BME280;65952;51.440;-2.054;2023-07-13T01:39:33;100193.47;;;15.63;69.65
77023;BME280;65952;51.440;-2.054;2023-07-13T01:41:59;100189.31;;;15.67;69.22
77023;BME280;65952;51.440;-2.054;2023-07-13T01:44:24;100189.09;;;15.68;69.25
77023;BME280;65952;51.440;-2.054;2023-07-13T01:46:51;100182.22;;;15.59;69.83
77023;BME280;65952;51.440;-2.054;2023-07-13T01:49:16;100182.66;;;15.56;69.91
77023;BME280;65952;51.440;-2.054;2023-07-13T01:51:41;100182.41;;;15.51;70.07
77023;BME280;65952;51.440;-2.054;2023-07-13T01:54:07;100186.78;;;15.45;70.37
77023;BME280;65952;51.440;-2.054;2023-07-13T01:56:32;100184.28;;;15.43;70.57
77023;BME280;65952;51.440;-2.054;2023-07-13T01:58:57;100185.31;;;15.42;70.61
77023;BME280;65952;51.440;-2.054;2023-07-13T02:01:23;100188.66;;;15.44;70.53
77023;BME280;65952;51.440;-2.054;2023-07-13T02:03:48;100191.75;;;15.41;70.96
77023;BME280;65952;51.440;-2.054;2023-07-13T02:06:14;100189.25;;;15.40;71.03
77023;BME280;65952;51.440;-2.054;2023-07-13T02:08:40;100186.34;;;15.41;70.83
77023;BME280;65952;51.440;-2.054;2023-07-13T02:11:06;100183.84;;;15.40;71.16
77023;BME280;65952;51.440;-2.054;2023-07-13T02:13:31;100184.28;;;15.43;70.71
77023;BME280;65952;51.440;-2.054;2023-07-13T02:15:56;100184.88;;;15.46;70.78
77023;BME280;65952;51.440;-2.054;2023-07-13T02:18:22;100184.06;;;15.38;70.74
77023;BME280;65952;51.440;-2.054;2023-07-13T02:20:47;100175.91;;;15.32;71.04
77023;BME280;65952;51.440;-2.054;2023-07-13T02:23:13;100173.41;;;15.37;70.80
77023;BME280;65952;51.440;-2.054;2023-07-13T02:25:41;100177.56;;;15.33;70.94
77023;BME280;65952;51.440;-2.054;2023-07-13T02:28:07;100178.78;;;15.23;70.93
77023;BME280;65952;51.440;-2.054;2023-07-13T02:30:34;100182.75;;;15.21;71.42
77023;BME280;65952;51.440;-2.054;2023-07-13T02:32:59;100182.91;;;15.19;71.58
77023;BME280;65952;51.440;-2.054;2023-07-13T02:35:26;100178.78;;;15.23;71.70
77023;BME280;65952;51.440;-2.054;2023-07-13T02:37:51;100178.00;;;15.30;71.63
77023;BME280;65952;51.440;-2.054;2023-07-13T02:40:17;100179.88;;;15.36;71.30
77023;BME280;65952;51.440;-2.054;2023-07-13T02:42:42;100174.47;;;15.36;71.08
77023;BME280;65952;51.440;-2.054;2023-07-13T02:45:08;100176.31;;;15.35;71.33
77023;BME280;65952;51.440;-2.054;2023-07-13T02:47:35;100175.72;;;15.40;71.25
77023;BME280;65952;51.440;-2.054;2023-07-13T02:50:01;100181.13;;;15.40;71.38
77023;BME280;65952;51.440;-2.054;2023-07-13T02:52:26;100183.41;;;15.43;71.35
77023;BME280;65952;51.440;-2.054;2023-07-13T02:54:52;100175.94;;;15.45;71.24
77023;BME280;65952;51.440;-2.054;2023-07-13T02:57:17;100173.88;;;15.47;71.02
77023;BME280;65952;51.440;-2.054;2023-07-13T02:59:43;100175.31;;;15.43;71.07
77023;BME280;65952;51.440;-2.054;2023-07-13T03:02:08;100173.41;;;15.37;71.24
77023;BME280;65952;51.440;-2.054;2023-07-13T03:04:36;100171.34;;;15.32;71.24
77023;BME280;65952;51.440;-2.054;2023-07-13T03:07:02;100173.19;;;15.32;71.23
77023;BME280;65952;51.440;-2.054;2023-07-13T03:09:27;100170.84;;;15.22;71.95
77023;BME280;65952;51.440;-2.054;2023-07-13T03:11:54;100171.25;;;15.12;72.32
77023;BME280;65952;51.440;-2.054;2023-07-13T03:14:21;100165.19;;;15.03;72.86
77023;BME280;65952;51.440;-2.054;2023-07-13T03:16:46;100169.13;;;15.01;72.62
77023;BME280;65952;51.440;-2.054;2023-07-13T03:19:13;100172.44;;;14.96;73.09
77023;BME280;65952;51.440;-2.054;2023-07-13T03:21:38;100171.59;;;14.95;72.91
77023;BME280;65952;51.440;-2.054;2023-07-13T03:24:04;100174.47;;;14.87;73.50
77023;BME280;65952;51.440;-2.054;2023-07-13T03:26:29;100174.88;;;14.84;73.67
77023;BME280;65952;51.440;-2.054;2023-07-13T03:28:56;100172.78;;;14.86;74.05
77023;BME280;65952;51.440;-2.054;2023-07-13T03:31:26;100166.78;;;14.91;73.39
77023;BME280;65952;51.440;-2.054;2023-07-13T03:33:54;100181.97;;;14.92;73.50
77023;BME280;65952;51.440;-2.054;2023-07-13T03:36:22;100181.34;;;14.90;73.31
77023;BME280;65952;51.440;-2.054;2023-07-13T03:38:51;100175.47;;;14.86;73.56
77023;BME280;65952;51.440;-2.054;2023-07-13T03:41:17;100179.22;;;14.85;73.46
77023;BME280;65952;51.440;-2.054;2023-07-13T03:43:43;100180.44;;;14.83;73.75
77023;BME280;65952;51.440;-2.054;2023-07-13T03:46:09;100182.09;;;14.77;73.50
77023;BME280;65952;51.440;-2.054;2023-07-13T03:48:35;100184.34;;;14.73;73.68
77023;BME280;65952;51.440;-2.054;2023-07-13T03:51:00;100184.75;;;14.70;73.69
77023;BME280;65952;51.440;-2.054;2023-07-13T03:53:26;100188.91;;;14.73;73.87
77023;BME280;65952;51.440;-2.054;2023-07-13T03:55:51;100198.47;;;14.69;73.71
77023;BME280;65952;51.440;-2.054;2023-07-13T03:58:32;100188.22;;;14.64;73.82
77023;BME280;65952;51.440;-2.054;2023-07-13T04:00:59;100190.28;;;14.62;73.88
77023;BME280;65952;51.440;-2.054;2023-07-13T04:03:26;100185.03;;;14.54;74.39
77023;BME280;65952;51.440;-2.054;2023-07-13T04:05:54;100190.84;;;14.51;74.62
77023;BME280;65952;51.440;-2.054;2023-07-13T04:08:20;100193.31;;;14.52;74.57
77023;BME280;65952;51.440;-2.054;2023-07-13T04:10:45;100193.53;;;14.51;74.97
77023;BME280;65952;51.440;-2.054;2023-07-13T04:13:11;100191.66;;;14.51;75.23
77023;BME280;65952;51.440;-2.054;2023-07-13T04:15:38;100179.03;;;14.58;74.71
77023;BME280;65952;51.440;-2.054;2023-07-13T04:18:04;100189.84;;;14.58;74.65
77023;BME280;65952;51.440;-2.054;2023-07-13T04:20:29;100194.22;;;14.59;74.95
77023;BME280;65952;51.440;-2.054;2023-07-13T04:22:55;100198.88;;;14.66;74.94
77023;BME280;65952;51.440;-2.054;2023-07-13T04:25:21;100193.69;;;14.71;74.81
77023;BME280;65952;51.440;-2.054;2023-07-13T04:27:46;100196.00;;;14.74;75.04
77023;BME280;65952;51.440;-2.054;2023-07-13T04:30:12;100194.81;;;14.83;74.62
77023;BME280;65952;51.440;-2.054;2023-07-13T04:32:38;100203.19;;;14.95;74.43
77023;BME280;65952;51.440;-2.054;2023-07-13T04:35:04;100197.81;;;15.02;74.61
77023;BME280;65952;51.440;-2.054;2023-07-13T04:37:29;100206.59;;;15.10;73.72
77023;BME280;65952;51.440;-2.054;2023-07-13T04:39:55;100199.94;;;15.13;73.92
77023;BME280;65952;51.440;-2.054;2023-07-13T04:42:21;100209.56;;;15.22;73.40
77023;BME280;65952;51.440;-2.054;2023-07-13T04:44:49;100209.16;;;15.25;73.44
77023;BME280;65952;51.440;-2.054;2023-07-13T04:47:15;100213.31;;;15.28;73.13
77023;BME280;65952;51.440;-2.054;2023-07-13T04:49:40;100217.50;;;15.31;73.34
77023;BME280;65952;51.440;-2.054;2023-07-13T04:52:07;100217.78;;;15.42;73.14
77023;BME280;65952;51.440;-2.054;2023-07-13T04:54:35;100215.50;;;15.53;72.86
77023;BME280;65952;51.440;-2.054;2023-07-13T04:57:03;100213.88;;;15.58;72.95
77023;BME280;65952;51.440;-2.054;2023-07-13T04:59:34;100216.00;;;15.70;72.74
77023;BME280;65952;51.440;-2.054;2023-07-13T05:02:00;100217.31;;;15.87;72.15
77023;BME280;65952;51.440;-2.054;2023-07-13T05:04:26;100224.81;;;16.05;71.90
77023;BME280;65952;51.440;-2.054;2023-07-13T05:06:52;100215.28;;;16.16;70.91
77023;BME280;65952;51.440;-2.054;2023-07-13T05:09:17;100219.22;;;16.27;70.11
77023;BME280;65952;51.440;-2.054;2023-07-13T05:11:43;100221.31;;;16.32;70.10
77023;BME280;65952;51.440;-2.054;2023-07-13T05:14:09;100233.38;;;16.36;69.96
77023;BME280;65952;51.440;-2.054;2023-07-13T05:16:35;100219.44;;;16.46;69.63
77023;BME280;65952;51.440;-2.054;2023-07-13T05:19:01;100216.50;;;16.47;69.31
77023;BME280;65952;51.440;-2.054;2023-07-13T05:21:26;100210.03;;;16.55;69.12
77023;BME280;65952;51.440;-2.054;2023-07-13T05:23:52;100217.09;;;16.63;68.62
77023;BME280;65952;51.440;-2.054;2023-07-13T05:26:17;100218.56;;;16.65;68.58
77023;BME280;65952;51.440;-2.054;2023-07-13T05:28:43;100218.97;;;16.69;68.99
77023;BME280;65952;51.440;-2.054;2023-07-13T05:31:09;100216.91;;;16.71;68.58
77023;BME280;65952;51.440;-2.054;2023-07-13T05:33:35;100221.69;;;16.76;68.27
77023;BME280;65952;51.440;-2.054;2023-07-13T05:36:00;100216.31;;;16.55;68.99
77023;BME280;65952;51.440;-2.054;2023-07-13T05:38:27;100228.78;;;16.50;68.77
77023;BME280;65952;51.440;-2.054;2023-07-13T05:40:54;100221.91;;;16.27;70.00
77023;BME280;65952;51.440;-2.054;2023-07-13T05:43:20;100225.69;;;16.39;69.55
77023;BME280;65952;51.440;-2.054;2023-07-13T05:45:45;100229.00;;;16.55;69.30
77023;BME280;65952;51.440;-2.054;2023-07-13T05:48:11;100231.28;;;16.65;69.26
77023;BME280;65952;51.440;-2.054;2023-07-13T05:50:36;100231.50;;;16.77;68.90
77023;BME280;65952;51.440;-2.054;2023-07-13T05:53:02;100242.34;;;16.97;68.05
77023;BME280;65952;51.440;-2.054;2023-07-13T05:55:27;100242.91;;;17.05;67.63
77023;BME280;65952;51.440;-2.054;2023-07-13T05:57:52;100251.03;;;17.19;67.28
77023;BME280;65952;51.440;-2.054;2023-07-13T06:00:18;100248.22;;;17.46;66.70
77023;BME280;65952;51.440;-2.054;2023-07-13T06:02:43;100258.78;;;17.61;65.91
77023;BME280;65952;51.440;-2.054;2023-07-13T06:05:09;100256.84;;;17.75;65.59
77023;BME280;65952;51.440;-2.054;2023-07-13T06:07:34;100261.22;;;17.76;65.61
77023;BME280;65952;51.440;-2.054;2023-07-13T06:10:00;100261.28;;;17.69;65.51
77023;BME280;65952;51.440;-2.054;2023-07-13T06:12:26;100267.72;;;17.75;65.58
77023;BME280;65952;51.440;-2.054;2023-07-13T06:14:51;100272.75;;;17.71;65.82
77023;BME280;65952;51.440;-2.054;2023-07-13T06:17:17;100272.19;;;17.62;66.39
77023;BME280;65952;51.440;-2.054;2023-07-13T06:19:43;100269.06;;;17.59;67.23
77023;BME280;65952;51.440;-2.054;2023-07-13T06:22:08;100278.47;;;17.49;67.52
77023;BME280;65952;51.440;-2.054;2023-07-13T06:24:33;100276.88;;;17.35;68.44
77023;BME280;65952;51.440;-2.054;2023-07-13T06:26:59;100277.28;;;17.32;68.58
77023;BME280;65952;51.440;-2.054;2023-07-13T06:29:24;100277.09;;;17.27;68.89
77023;BME280;65952;51.440;-2.054;2023-07-13T06:31:50;100274.84;;;17.10;69.25
77023;BME280;65952;51.440;-2.054;2023-07-13T06:34:15;100287.78;;;17.08;70.02
77023;BME280;65952;51.440;-2.054;2023-07-13T06:36:41;100292.75;;;17.18;69.68
77023;BME280;65952;51.440;-2.054;2023-07-13T06:39:07;100297.97;;;17.26;69.55
77023;BME280;65952;51.440;-2.054;2023-07-13T06:41:32;100299.81;;;17.39;69.80
77023;BME280;65952;51.440;-2.054;2023-07-13T06:43:58;100306.06;;;17.46;69.14
77023;BME280;65952;51.440;-2.054;2023-07-13T06:46:23;100311.28;;;17.34;69.18
77023;BME280;65952;51.440;-2.054;2023-07-13T06:48:49;100314.03;;;17.28;69.51
77023;BME280;65952;51.440;-2.054;2023-07-13T06:51:15;100309.47;;;17.15;69.79
77023;BME280;65952;51.440;-2.054;2023-07-13T06:53:40;100307.81;;;17.00;70.39
77023;BME280;65952;51.440;-2.054;2023-07-13T06:56:07;100312.81;;;16.90;71.02
77023;BME280;65952;51.440;-2.054;2023-07-13T06:58:33;100312.81;;;16.90;71.30
77023;BME280;65952;51.440;-2.054;2023-07-13T07:00:59;100309.72;;;16.93;70.84
77023;BME280;65952;51.440;-2.054;2023-07-13T07:03:24;100313.03;;;16.95;71.13
77023;BME280;65952;51.440;-2.054;2023-07-13T07:05:50;100315.94;;;17.14;70.96
77023;BME280;65952;51.440;-2.054;2023-07-13T07:08:15;100312.34;;;17.40;70.33
77023;BME280;65952;51.440;-2.054;2023-07-13T07:10:41;100304.44;;;17.84;70.30
77023;BME280;65952;51.440;-2.054;2023-07-13T07:13:07;100311.22;;;18.71;68.39
77023;BME280;65952;51.440;-2.054;2023-07-13T07:15:34;100314.34;;;19.43;65.18
77023;BME280;65952;51.440;-2.054;2023-07-13T07:17:59;100314.53;;;20.94;62.41
77023;BME280;65952;51.440;-2.054;2023-07-13T07:20:25;100304.50;;;23.14;56.38
77023;BME280;65952;51.440;-2.054;2023-07-13T07:22:50;100312.94;;;24.45;51.52
77023;BME280;65952;51.440;-2.054;2023-07-13T07:25:16;100314.41;;;25.34;49.71
77023;BME280;65952;51.440;-2.054;2023-07-13T07:27:41;100319.38;;;26.00;46.89
77023;BME280;65952;51.440;-2.054;2023-07-13T07:30:07;100330.63;;;25.35;47.02
77023;BME280;65952;51.440;-2.054;2023-07-13T07:32:32;100320.78;;;25.02;47.78
77023;BME280;65952;51.440;-2.054;2023-07-13T07:34:58;100333.22;;;24.72;48.69
77023;BME280;65952;51.440;-2.054;2023-07-13T07:37:24;100336.31;;;23.98;49.57
77023;BME280;65952;51.440;-2.054;2023-07-13T07:39:49;100328.25;;;23.08;52.37
77023;BME280;65952;51.440;-2.054;2023-07-13T07:42:15;100326.69;;;22.44;53.25
77023;BME280;65952;51.440;-2.054;2023-07-13T07:44:41;100333.38;;;21.55;55.86
77023;BME280;65952;51.440;-2.054;2023-07-13T07:47:07;100347.63;;;20.98;57.70
77023;BME280;65952;51.440;-2.054;2023-07-13T07:49:33;100346.38;;;20.58;59.14
77023;BME280;65952;51.440;-2.054;2023-07-13T07:51:58;100347.22;;;20.28;60.02
77023;BME280;65952;51.440;-2.054;2023-07-13T07:54:23;100352.09;;;20.07;61.70
77023;BME280;65952;51.440;-2.054;2023-07-13T07:56:49;100355.41;;;19.97;62.33
77023;BME280;65952;51.440;-2.054;2023-07-13T07:59:14;100358.66;;;19.88;63.29
77023;BME280;65952;51.440;-2.054;2023-07-13T08:01:39;100361.84;;;19.66;63.46
77023;BME280;65952;51.440;-2.054;2023-07-13T08:04:05;100358.72;;;19.44;63.62
77023;BME280;65952;51.440;-2.054;2023-07-13T08:06:34;100347.44;;;19.40;64.29
77023;BME280;65952;51.440;-2.054;2023-07-13T08:08:59;100348.94;;;19.36;64.44
77023;BME280;65952;51.440;-2.054;2023-07-13T08:11:26;100347.66;;;19.39;64.65
77023;BME280;65952;51.440;-2.054;2023-07-13T08:13:52;100346.66;;;19.33;64.36
77023;BME280;65952;51.440;-2.054;2023-07-13T08:16:17;100357.03;;;19.43;64.64
77023;BME280;65952;51.440;-2.054;2023-07-13T08:18:43;100346.53;;;19.46;64.16
77023;BME280;65952;51.440;-2.054;2023-07-13T08:21:09;100351.88;;;19.16;64.05
77023;BME280;65952;51.440;-2.054;2023-07-13T08:23:35;100348.19;;;19.29;64.77
77023;BME280;65952;51.440;-2.054;2023-07-13T08:26:01;100355.19;;;19.18;64.91
77023;BME280;65952;51.440;-2.054;2023-07-13T08:28:27;100354.28;;;19.24;64.88
77023;BME280;65952;51.440;-2.054;2023-07-13T08:30:53;100349.53;;;19.20;65.53
77023;BME280;65952;51.440;-2.054;2023-07-13T08:33:20;100360.34;;;19.26;65.09
77023;BME280;65952;51.440;-2.054;2023-07-13T08:35:49;100346.44;;;19.16;64.40
77023;BME280;65952;51.440;-2.054;2023-07-13T08:38:15;100350.66;;;19.30;64.72
77023;BME280;65952;51.440;-2.054;2023-07-13T08:40:41;100349.09;;;19.41;64.80
77023;BME280;65952;51.440;-2.054;2023-07-13T08:43:28;100359.22;;;19.34;65.13
77023;BME280;65952;51.440;-2.054;2023-07-13T08:54:03;100359.41;;;19.76;64.43
77023;BME280;65952;51.440;-2.054;2023-07-13T08:56:31;100363.66;;;19.91;63.60
77023;BME280;65952;51.440;-2.054;2023-07-13T08:59:09;100361.66;;;20.17;63.41
77023;BME280;65952;51.440;-2.054;2023-07-13T09:04:16;100361.63;;;20.77;61.51
77023;BME280;65952;51.440;-2.054;2023-07-13T09:07:09;100358.44;;;21.28;60.18
77023;BME280;65952;51.440;-2.054;2023-07-13T09:17:51;100355.94;;;20.49;59.62
77023;BME280;65952;51.440;-2.054;2023-07-13T09:20:58;100359.94;;;20.34;60.41
77023;BME280;65952;51.440;-2.054;2023-07-13T09:23:19;100358.59;;;20.25;61.19
77023;BME280;65952;51.440;-2.054;2023-07-13T09:25:51;100366.44;;;20.03;62.22
77023;BME280;65952;51.440;-2.054;2023-07-13T09:28:29;100359.53;;;19.81;63.58
77023;BME280;65952;51.440;-2.054;2023-07-13T09:31:01;100361.22;;;19.64;64.22
77023;BME280;65952;51.440;-2.054;2023-07-13T09:33:28;100364.03;;;19.57;64.21
77023;BME280;65952;51.440;-2.054;2023-07-13T09:35:56;100355.00;;;19.57;64.95
77023;BME280;65952;51.440;-2.054;2023-07-13T09:38:24;100362.13;;;19.76;65.61
77023;BME280;65952;51.440;-2.054;2023-07-13T09:44:13;100351.22;;;20.44;63.50
77023;BME280;65952;51.440;-2.054;2023-07-13T09:46:44;100351.47;;;20.54;63.08
77023;BME280;65952;51.440;-2.054;2023-07-13T09:49:11;100356.47;;;20.69;62.38
77023;BME280;65952;51.440;-2.054;2023-07-13T09:51:40;100347.75;;;21.03;62.03
77023;BME280;65952;51.440;-2.054;2023-07-13T09:54:18;100344.78;;;21.28;59.45
77023;BME280;65952;51.440;-2.054;2023-07-13T09:56:43;100348.91;;;21.54;58.57
77023;BME280;65952;51.440;-2.054;2023-07-13T09:59:21;100348.53;;;22.15;59.29
77023;BME280;65952;51.440;-2.054;2023-07-13T10:01:47;100355.97;;;22.95;59.03
77023;BME280;65952;51.440;-2.054;2023-07-13T10:04:17;100350.19;;;23.69;55.35
77023;BME280;65952;51.440;-2.054;2023-07-13T10:06:44;100351.59;;;23.72;51.45
77023;BME280;65952;51.440;-2.054;2023-07-13T10:09:13;100351.69;;;23.77;51.00
77023;BME280;65952;51.440;-2.054;2023-07-13T10:11:40;100343.81;;;23.86;52.82
77023;BME280;65952;51.440;-2.054;2023-07-13T10:14:18;100354.19;;;24.56;51.40
77023;BME280;65952;51.440;-2.054;2023-07-13T10:16:46;100354.44;;;25.24;47.26
77023;BME280;65952;51.440;-2.054;2023-07-13T10:22:02;100347.19;;;25.08;46.66
77023;BME280;65952;51.440;-2.054;2023-07-13T10:24:32;100354.91;;;25.06;47.26
77023;BME280;65952;51.440;-2.054;2023-07-13T10:29:29;100362.41;;;24.28;48.97
77023;BME280;65952;51.440;-2.054;2023-07-13T10:32:00;100359.09;;;23.37;53.58
77023;BME280;65952;51.440;-2.054;2023-07-13T10:34:25;100362.84;;;22.97;54.69
77023;BME280;65952;51.440;-2.054;2023-07-13T10:36:52;100363.00;;;22.73;55.44
77023;BME280;65952;51.440;-2.054;2023-07-13T10:39:23;100372.94;;;22.34;57.25
77023;BME280;65952;51.440;-2.054;2023-07-13T10:41:54;100380.66;;;21.67;58.85
77023;BME280;65952;51.440;-2.054;2023-07-13T10:44:26;100379.94;;;21.36;59.90
77023;BME280;65952;51.440;-2.054;2023-07-13T10:46:58;100383.63;;;21.30;60.68
77023;BME280;65952;51.440;-2.054;2023-07-13T10:49:27;100384.91;;;21.39;61.64
77023;BME280;65952;51.440;-2.054;2023-07-13T10:51:52;100383.75;;;21.59;61.74
77023;BME280;65952;51.440;-2.054;2023-07-13T10:54:20;100373.13;;;21.86;61.12
77023;BME280;65952;51.440;-2.054;2023-07-13T10:56:50;100379.50;;;22.04;60.54
77023;BME280;65952;51.440;-2.054;2023-07-13T10:59:24;100387.09;;;22.02;60.36
77023;BME280;65952;51.440;-2.054;2023-07-13T11:02:08;100386.53;;;21.88;58.34
77023;BME280;65952;51.440;-2.054;2023-07-13T11:04:43;100388.84;;;21.43;56.34
77023;BME280;65952;51.440;-2.054;2023-07-13T11:07:19;100395.22;;;21.25;57.47
77023;BME280;65952;51.440;-2.054;2023-07-13T11:09:50;100402.72;;;21.06;58.14
77023;BME280;65952;51.440;-2.054;2023-07-13T11:12:28;100404.34;;;20.53;61.12
77023;BME280;65952;51.440;-2.054;2023-07-13T11:19:53;100388.28;;;20.14;59.39
77023;BME280;65952;51.440;-2.054;2023-07-13T11:25:31;100389.53;;;20.61;58.68
77023;BME280;65952;51.440;-2.054;2023-07-13T11:28:14;100379.81;;;21.07;57.04
77023;BME280;65952;51.440;-2.054;2023-07-13T11:38:41;100365.38;;;23.99;48.46
77023;BME280;65952;51.440;-2.054;2023-07-13T11:41:17;100368.19;;;24.05;49.80
77023;BME280;65952;51.440;-2.054;2023-07-13T11:43:44;100357.78;;;23.84;50.62
77023;BME280;65952;51.440;-2.054;2023-07-13T11:46:25;100367.63;;;24.30;47.99
77023;BME280;65952;51.440;-2.054;2023-07-13T11:48:52;100369.22;;;24.48;46.82
77023;BME280;65952;51.440;-2.054;2023-07-13T11:51:23;100364.13;;;24.89;48.37
77023;BME280;65952;51.440;-2.054;2023-07-13T11:53:52;100354.09;;;25.53;46.12
77023;BME280;65952;51.440;-2.054;2023-07-13T11:56:18;100357.78;;;25.79;44.78
77023;BME280;65952;51.440;-2.054;2023-07-13T11:58:48;100345.41;;;25.82;43.24
77023;BME280;65952;51.440;-2.054;2023-07-13T12:01:23;100350.31;;;25.70;43.15
77023;BME280;65952;51.440;-2.054;2023-07-13T12:03:50;100344.47;;;25.56;42.57
77023;BME280;65952;51.440;-2.054;2023-07-13T12:06:34;100347.88;;;25.25;43.41
77023;BME280;65952;51.440;-2.054;2023-07-13T12:09:14;100343.78;;;25.33;44.20
77023;BME280;65952;51.440;-2.054;2023-07-13T12:11:43;100346.97;;;25.52;43.40
77023;BME280;65952;51.440;-2.054;2023-07-13T12:14:16;100338.81;;;25.78;43.26
77023;BME280;65952;51.440;-2.054;2023-07-13T12:16:42;100338.00;;;25.77;43.94
77023;BME280;65952;51.440;-2.054;2023-07-13T12:19:21;100342.63;;;25.24;43.53
77023;BME280;65952;51.440;-2.054;2023-07-13T12:21:47;100346.00;;;24.93;44.72
77023;BME280;65952;51.440;-2.054;2023-07-13T12:24:18;100361.16;;;24.41;48.54
77023;BME280;65952;51.440;-2.054;2023-07-13T12:26:50;100357.75;;;23.40;50.69
77023;BME280;65952;51.440;-2.054;2023-07-13T12:29:17;100360.56;;;22.43;52.85
77023;BME280;65952;51.440;-2.054;2023-07-13T12:31:45;100361.88;;;21.59;53.84
77023;BME280;65952;51.440;-2.054;2023-07-13T12:34:17;100362.25;;;21.15;54.06
77023;BME280;65952;51.440;-2.054;2023-07-13T12:37:00;100362.00;;;20.93;54.85
77023;BME280;65952;51.440;-2.054;2023-07-13T12:39:33;100355.09;;;20.90;55.65
77023;BME280;65952;51.440;-2.054;2023-07-13T12:42:22;100354.88;;;21.27;54.73
77023;BME280;65952;51.440;-2.054;2023-07-13T12:45:03;100354.97;;;21.80;53.49
77023;BME280;65952;51.440;-2.054;2023-07-13T12:47:41;100351.13;;;22.22;51.93
77023;BME280;65952;51.440;-2.054;2023-07-13T12:50:16;100355.00;;;22.26;51.56
77023;BME280;65952;51.440;-2.054;2023-07-13T12:52:43;100351.06;;;22.34;51.83
77023;BME280;65952;51.440;-2.054;2023-07-13T12:55:18;100340.91;;;22.17;50.97
77023;BME280;65952;51.440;-2.054;2023-07-13T12:57:49;100347.16;;;22.01;51.48
77023;BME280;65952;51.440;-2.054;2023-07-13T13:00:28;100350.50;;;21.91;53.28
77023;BME280;65952;51.440;-2.054;2023-07-13T13:03:00;100349.00;;;21.83;53.79
77023;BME280;65952;51.440;-2.054;2023-07-13T13:05:29;100345.19;;;21.96;54.39
77023;BME280;65952;51.440;-2.054;2023-07-13T13:07:55;100344.31;;;22.07;53.51
77023;BME280;65952;51.440;-2.054;2023-07-13T13:10:20;100356.94;;;22.26;53.51
77023;BME280;65952;51.440;-2.054;2023-07-13T13:12:46;100337.38;;;22.34;52.99
77023;BME280;65952;51.440;-2.054;2023-07-13T13:15:12;100346.84;;;22.72;52.15
77023;BME280;65952;51.440;-2.054;2023-07-13T13:17:39;100349.31;;;22.73;51.61
77023;BME280;65952;51.440;-2.054;2023-07-13T13:20:15;100348.91;;;22.82;50.67
77023;BME280;65952;51.440;-2.054;2023-07-13T13:22:41;100336.47;;;23.08;50.16
77023;BME280;65952;51.440;-2.054;2023-07-13T13:25:10;100338.84;;;23.61;50.29
77023;BME280;65952;51.440;-2.054;2023-07-13T13:27:36;100344.19;;;24.17;48.56